createdAt,value
2023-03-16T00:00:02.212Z,2.00
2023-03-16T00:02:29.047Z,2.00
2023-03-16T00:04:55.808Z,2.00
2023-03-16T00:07:22.667Z,2.00
2023-03-16T00:09:49.696Z,2.00
2023-03-16T00:12:19.043Z,2.00
2023-03-16T00:14:48.824Z,2.10
2023-03-16T00:17:18.371Z,2.00
2023-03-16T00:19:46.567Z,2.10
2023-03-16T00:22:14.191Z,2.00
2023-03-16T00:24:42.285Z,2.10
2023-03-16T00:27:09.241Z,2.10
2023-03-16T00:29:35.993Z,2.20
2023-03-16T00:32:04.278Z,2.10
2023-03-16T00:34:31.059Z,2.10
2023-03-16T00:36:57.786Z,2.10
2023-03-16T00:39:24.551Z,2.10
2023-03-16T00:41:51.394Z,2.10
2023-03-16T00:44:18.126Z,2.00
2023-03-16T00:46:45.146Z,2.00
2023-03-16T00:49:13.552Z,2.00
2023-03-16T00:51:40.279Z,2.00
2023-03-16T00:54:07.027Z,2.00
2023-03-16T00:56:33.772Z,2.00
2023-03-16T00:59:02.563Z,2.00
2023-03-16T01:01:29.472Z,2.00
2023-03-16T01:03:56.181Z,2.00
2023-03-16T01:06:24.615Z,2.00
2023-03-16T01:08:51.821Z,2.00
2023-03-16T01:11:20.794Z,2.00
2023-03-16T01:13:47.907Z,2.00
2023-03-16T01:16:15.685Z,2.00
2023-03-16T01:18:42.682Z,2.00
2023-03-16T01:21:10.514Z,2.00
2023-03-16T01:23:38.606Z,2.00
2023-03-16T01:26:05.937Z,2.00
2023-03-16T01:28:33.618Z,2.10
2023-03-16T01:31:03.048Z,2.10
2023-03-16T01:33:30.244Z,2.00
2023-03-16T01:35:58.876Z,2.00
2023-03-16T01:38:26.356Z,2.10
2023-03-16T01:40:55.568Z,2.10
2023-03-16T01:43:25.354Z,2.10
2023-03-16T01:46:15.021Z,2.10
2023-03-16T01:48:46.521Z,2.10
2023-03-16T01:51:20.266Z,2.10
2023-03-16T01:53:50.274Z,2.10
2023-03-16T01:56:23.747Z,2.10
2023-03-16T01:58:53.454Z,2.10
2023-03-16T02:01:20.399Z,2.00
2023-03-16T02:03:47.156Z,2.00
2023-03-16T02:06:19.031Z,2.10
2023-03-16T02:08:48.877Z,2.10
2023-03-16T02:11:16.517Z,2.10
2023-03-16T02:13:45.726Z,2.10
2023-03-16T02:16:14.882Z,2.10
2023-03-16T02:18:41.837Z,2.20
2023-03-16T02:21:18.614Z,2.20
2023-03-16T02:23:46.331Z,2.20
2023-03-16T02:26:22.233Z,2.20
2023-03-16T02:29:00.090Z,2.20
2023-03-16T02:31:28.388Z,2.20
2023-03-16T02:33:57.485Z,2.20
2023-03-16T02:36:24.090Z,2.20
2023-03-16T02:38:50.824Z,2.20
2023-03-16T02:41:20.128Z,2.20
2023-03-16T02:43:55.466Z,2.20
2023-03-16T02:46:26.548Z,2.20
2023-03-16T02:49:00.181Z,2.30
2023-03-16T02:51:26.945Z,2.30
2023-03-16T02:53:53.682Z,2.30
2023-03-16T02:56:20.514Z,2.20
2023-03-16T02:58:47.278Z,2.20
2023-03-16T03:01:14.293Z,2.20
2023-03-16T03:03:41.125Z,2.20
2023-03-16T03:06:09.762Z,2.20
2023-03-16T03:08:38.094Z,2.20
2023-03-16T03:11:05.222Z,2.20
2023-03-16T03:13:31.999Z,2.20
2023-03-16T03:15:59.116Z,2.20
2023-03-16T03:18:25.951Z,2.10
2023-03-16T03:20:52.950Z,2.10
2023-03-16T03:23:21.192Z,2.10
2023-03-16T03:25:47.970Z,2.10
2023-03-16T03:28:14.680Z,2.10
2023-03-16T03:30:41.500Z,2.10
2023-03-16T03:33:08.579Z,2.10
2023-03-16T03:35:35.925Z,2.10
2023-03-16T03:38:02.669Z,2.10
2023-03-16T03:40:30.919Z,2.00
2023-03-16T03:42:57.796Z,2.00
2023-03-16T03:45:24.679Z,2.00
2023-03-16T03:47:51.557Z,2.00
2023-03-16T03:50:18.803Z,1.90
2023-03-16T03:52:45.565Z,1.90
2023-03-16T03:55:12.684Z,1.80
2023-03-16T03:57:40.784Z,1.80
2023-03-16T04:00:08.965Z,1.80
2023-03-16T04:02:35.846Z,1.80
2023-03-16T04:05:02.663Z,1.80
2023-03-16T04:07:29.404Z,1.70
2023-03-16T04:09:56.220Z,1.80
2023-03-16T04:12:23.112Z,1.70
2023-03-16T04:14:51.225Z,1.70
2023-03-16T04:17:18.081Z,1.70
2023-03-16T04:19:44.832Z,1.70
2023-03-16T04:22:11.582Z,1.70
2023-03-16T04:24:38.384Z,1.70
2023-03-16T04:27:05.206Z,1.70
2023-03-16T04:29:31.981Z,1.70
2023-03-16T04:32:00.556Z,1.70
2023-03-16T04:34:27.611Z,1.70
2023-03-16T04:36:54.619Z,1.70
2023-03-16T04:39:21.392Z,1.70
2023-03-16T04:41:48.399Z,1.70
2023-03-16T04:44:15.489Z,1.70
2023-03-16T04:46:42.346Z,1.70
2023-03-16T04:49:10.813Z,1.80
2023-03-16T04:51:38.399Z,1.80
2023-03-16T04:54:05.290Z,1.80
2023-03-16T04:56:32.048Z,1.80
2023-03-16T04:58:58.810Z,1.80
2023-03-16T05:01:25.579Z,1.90
2023-03-16T05:03:52.375Z,1.90
2023-03-16T05:06:20.935Z,1.90
2023-03-16T05:08:48.142Z,1.90
2023-03-16T05:11:14.920Z,1.90
2023-03-16T05:13:41.630Z,2.00
2023-03-16T05:16:08.453Z,2.00
2023-03-16T05:18:35.191Z,2.00
2023-03-16T05:21:01.910Z,2.00
2023-03-16T05:23:30.064Z,2.00
2023-03-16T05:25:59.823Z,2.00
2023-03-16T05:28:27.160Z,2.00
2023-03-16T05:30:53.957Z,2.00
2023-03-16T05:33:20.953Z,2.10
2023-03-16T05:35:47.909Z,2.10
2023-03-16T05:38:14.666Z,2.10
2023-03-16T05:40:42.895Z,2.00
2023-03-16T05:43:09.647Z,2.10
2023-03-16T05:45:36.401Z,2.10
2023-03-16T05:48:03.348Z,2.10
2023-03-16T05:50:30.662Z,2.10
2023-03-16T05:52:57.726Z,2.10
2023-03-16T05:55:24.466Z,2.10
2023-03-16T05:57:52.737Z,2.10
2023-03-16T06:00:20.684Z,2.10
2023-03-16T06:02:49.466Z,2.10
2023-03-16T06:05:17.153Z,2.20
2023-03-16T06:07:44.406Z,2.20
2023-03-16T06:10:12.507Z,2.20
2023-03-16T06:12:39.530Z,2.20
2023-03-16T06:15:09.341Z,2.20
2023-03-16T06:17:36.598Z,2.10
2023-03-16T06:20:04.093Z,2.20
2023-03-16T06:22:30.826Z,2.20
2023-03-16T06:24:57.576Z,2.20
2023-03-16T06:27:24.315Z,2.20
2023-03-16T06:29:51.037Z,2.20
2023-03-16T06:32:19.256Z,2.20
2023-03-16T06:34:46.370Z,2.20
2023-03-16T06:37:13.166Z,2.20
2023-03-16T06:39:39.936Z,2.30
2023-03-16T06:42:06.868Z,2.30
2023-03-16T06:44:33.639Z,2.30
2023-03-16T06:47:00.389Z,2.40
2023-03-16T06:49:28.889Z,2.50
2023-03-16T06:51:55.802Z,2.50
2023-03-16T06:54:22.631Z,2.50
2023-03-16T06:56:49.434Z,2.50
2023-03-16T06:59:16.146Z,2.50
2023-03-16T07:01:42.960Z,2.50
2023-03-16T07:04:11.105Z,2.50
2023-03-16T07:06:39.277Z,2.50
2023-03-16T07:09:06.117Z,2.50
2023-03-16T07:11:35.798Z,2.60
2023-03-16T07:14:02.573Z,2.60
2023-03-16T07:16:29.633Z,2.70
2023-03-16T07:18:56.558Z,2.70
2023-03-16T07:21:23.467Z,2.70
2023-03-16T07:23:51.530Z,2.70
2023-03-16T07:26:18.634Z,2.80
2023-03-16T07:28:45.463Z,2.80
2023-03-16T07:31:12.218Z,3.00
2023-03-16T07:33:39.330Z,3.00
2023-03-16T07:36:06.841Z,3.00
2023-03-16T07:38:33.855Z,3.10
2023-03-16T07:41:02.030Z,3.10
2023-03-16T07:43:28.774Z,3.10
2023-03-16T07:45:56.625Z,3.10
2023-03-16T07:48:23.408Z,3.10
2023-03-16T07:50:50.731Z,3.10
2023-03-16T07:53:20.419Z,3.10
2023-03-16T07:55:47.249Z,3.10
2023-03-16T07:58:15.332Z,3.10
2023-03-16T08:00:42.248Z,3.10
2023-03-16T08:03:09.329Z,3.10
2023-03-16T08:05:36.165Z,3.10
2023-03-16T08:08:03.294Z,3.20
2023-03-16T08:10:31.483Z,3.20
2023-03-16T08:12:58.844Z,3.20
2023-03-16T08:15:26.943Z,3.20
2023-03-16T08:17:53.663Z,3.20
2023-03-16T08:20:20.610Z,3.30
2023-03-16T08:22:47.480Z,3.50
2023-03-16T08:25:14.871Z,3.60
2023-03-16T08:27:41.899Z,3.70
2023-03-16T08:30:11.052Z,3.80
2023-03-16T08:32:40.064Z,3.80
2023-03-16T08:35:07.408Z,3.80
2023-03-16T08:37:34.557Z,3.80
2023-03-16T08:40:01.428Z,3.80
2023-03-16T08:42:28.161Z,3.90
2023-03-16T08:44:55.179Z,4.10
2023-03-16T08:47:22.080Z,4.10
2023-03-16T08:49:50.152Z,4.10
2023-03-16T08:52:17.260Z,4.10
2023-03-16T08:54:59.739Z,4.10
2023-03-16T08:57:28.557Z,4.10
2023-03-16T08:59:55.317Z,4.10
2023-03-16T09:02:22.276Z,4.20
2023-03-16T09:04:51.016Z,4.20
2023-03-16T09:07:17.741Z,4.20
2023-03-16T09:09:44.970Z,4.30
2023-03-16T09:12:12.516Z,4.40
2023-03-16T09:14:39.433Z,4.50
2023-03-16T09:17:06.756Z,4.60
2023-03-16T09:19:50.049Z,4.60
2023-03-16T09:22:19.155Z,4.60
2023-03-16T09:24:45.972Z,4.60
2023-03-16T09:27:12.809Z,4.50
2023-03-16T09:29:39.601Z,4.50
2023-03-16T09:32:07.439Z,4.50
2023-03-16T09:34:34.178Z,4.60
2023-03-16T09:37:00.999Z,4.60
2023-03-16T09:39:29.195Z,4.70
2023-03-16T09:42:03.441Z,4.90
2023-03-16T09:44:39.420Z,4.90
2023-03-16T09:47:10.666Z,5.00
2023-03-16T09:49:43.215Z,5.10
2023-03-16T09:52:22.886Z,5.20
2023-03-16T09:54:56.915Z,5.30
2023-03-16T09:57:27.399Z,5.40
2023-03-16T09:59:54.605Z,5.40
2023-03-16T10:02:40.649Z,5.50
2023-03-16T10:05:09.848Z,5.70
2023-03-16T10:07:49.474Z,5.70
2023-03-16T10:10:27.094Z,6.30
2023-03-16T10:12:59.083Z,6.50
2023-03-16T10:15:28.366Z,6.60
2023-03-16T10:17:59.879Z,6.60
2023-03-16T10:20:28.622Z,6.60
2023-03-16T10:22:55.835Z,6.50
2023-03-16T10:25:27.661Z,6.80
2023-03-16T10:27:54.372Z,6.70
2023-03-16T10:30:24.276Z,7.00
2023-03-16T10:32:51.475Z,7.00
2023-03-16T10:35:30.310Z,6.90
2023-03-16T10:37:57.680Z,7.40
2023-03-16T10:40:30.918Z,7.50
2023-03-16T10:42:57.892Z,7.60
2023-03-16T10:45:30.036Z,7.60
2023-03-16T10:48:06.884Z,7.70
2023-03-16T10:50:33.910Z,7.90
2023-03-16T10:53:02.340Z,8.10
2023-03-16T10:55:32.075Z,8.30
2023-03-16T10:57:59.658Z,8.30
2023-03-16T11:00:28.465Z,8.20
2023-03-16T11:02:56.714Z,8.60
2023-03-16T11:05:30.206Z,8.60
2023-03-16T11:08:01.947Z,8.90
2023-03-16T11:10:33.204Z,9.00
2023-03-16T11:13:03.548Z,8.80
2023-03-16T11:15:37.104Z,8.80
2023-03-16T11:18:04.646Z,8.80
2023-03-16T11:20:34.346Z,8.80
2023-03-16T11:23:01.874Z,8.70
2023-03-16T11:25:34.988Z,8.90
2023-03-16T11:28:11.603Z,8.70
2023-03-16T11:30:41.241Z,8.80
2023-03-16T11:33:10.812Z,8.70
2023-03-16T11:35:58.092Z,8.60
2023-03-16T11:38:33.164Z,8.50
2023-03-16T11:41:03.950Z,8.60
2023-03-16T11:43:51.785Z,8.70
2023-03-16T11:46:22.064Z,8.70
2023-03-16T11:48:57.828Z,8.80
2023-03-16T11:51:36.422Z,8.80
2023-03-16T11:54:16.979Z,8.90
2023-03-16T11:56:49.947Z,9.00
2023-03-16T11:59:32.227Z,9.10
2023-03-16T12:02:20.555Z,9.00
2023-03-16T12:05:00.841Z,9.30
2023-03-16T12:07:46.974Z,9.40
2023-03-16T12:10:23.702Z,9.40
2023-03-16T12:13:19.333Z,9.50
2023-03-16T12:15:49.762Z,9.40
2023-03-16T12:18:21.607Z,9.70
2023-03-16T12:20:53.149Z,9.90
2023-03-16T12:23:25.165Z,9.80
2023-03-16T12:25:56.050Z,9.80
2023-03-16T12:28:29.363Z,10.00
2023-03-16T12:31:05.249Z,10.10
2023-03-16T12:33:43.714Z,10.40
2023-03-16T12:36:32.172Z,10.50
2023-03-16T12:39:02.544Z,10.60
2023-03-16T12:41:35.782Z,10.50
2023-03-16T12:44:12.950Z,10.60
2023-03-16T12:46:48.855Z,10.40
2023-03-16T12:49:16.489Z,10.60
2023-03-16T12:51:43.994Z,10.60
2023-03-16T12:54:20.470Z,10.50
2023-03-16T12:56:49.189Z,10.50
2023-03-16T12:59:20.002Z,10.90
2023-03-16T13:01:50.862Z,10.70
2023-03-16T13:04:20.444Z,10.60
2023-03-16T13:06:50.202Z,10.70
2023-03-16T13:09:20.005Z,10.80
2023-03-16T13:11:48.950Z,10.80
2023-03-16T13:14:30.660Z,10.80
2023-03-16T13:17:05.183Z,11.00
2023-03-16T13:19:32.975Z,11.20
2023-03-16T13:22:17.864Z,11.00
2023-03-16T13:24:51.363Z,11.00
2023-03-16T13:27:22.065Z,11.20
2023-03-16T13:29:58.214Z,11.20
2023-03-16T13:32:29.923Z,11.50
2023-03-16T13:34:58.867Z,11.80
2023-03-16T13:37:27.095Z,11.60
2023-03-16T13:39:56.095Z,11.40
2023-03-16T13:42:23.754Z,11.40
2023-03-16T13:44:53.663Z,11.60
2023-03-16T13:47:22.137Z,11.60
2023-03-16T13:49:50.833Z,11.90
2023-03-16T13:52:24.821Z,12.00
2023-03-16T13:54:51.942Z,11.80
2023-03-16T13:57:20.907Z,11.60
2023-03-16T13:59:47.741Z,11.60
2023-03-16T14:02:18.576Z,11.70
2023-03-16T14:04:46.755Z,11.50
2023-03-16T14:07:17.374Z,11.60
2023-03-16T14:09:44.458Z,11.70
2023-03-16T14:12:14.519Z,11.70
2023-03-16T14:14:42.137Z,11.80
2023-03-16T14:17:12.668Z,11.70
2023-03-16T14:19:42.788Z,11.60
2023-03-16T14:22:18.958Z,12.00
2023-03-16T14:24:51.794Z,11.80
2023-03-16T14:27:22.680Z,11.80
2023-03-16T14:29:58.054Z,12.00
2023-03-16T14:32:26.682Z,11.90
2023-03-16T14:35:00.383Z,12.10
2023-03-16T14:37:36.847Z,11.90
2023-03-16T14:40:06.777Z,11.90
2023-03-16T14:42:34.330Z,12.10
2023-03-16T14:45:03.842Z,12.30
2023-03-16T14:47:36.523Z,12.10
2023-03-16T14:50:07.896Z,12.00
2023-03-16T14:52:36.670Z,11.90
2023-03-16T14:55:12.139Z,12.00
2023-03-16T14:57:40.749Z,12.20
2023-03-16T15:00:10.239Z,12.20
2023-03-16T15:02:37.233Z,12.10
2023-03-16T15:05:04.695Z,12.00
2023-03-16T15:07:35.238Z,11.80
2023-03-16T15:10:08.584Z,11.70
2023-03-16T15:12:35.523Z,11.80
2023-03-16T15:15:02.292Z,11.70
2023-03-16T15:17:29.137Z,11.70
2023-03-16T15:19:55.864Z,11.80
2023-03-16T15:22:28.573Z,11.70
2023-03-16T15:24:56.071Z,11.50
2023-03-16T15:30:20.690Z,11.50
2023-03-16T15:32:52.546Z,11.50
2023-03-16T15:35:21.842Z,11.60
2023-03-16T15:37:49.032Z,11.70
2023-03-16T15:40:18.788Z,11.70
2023-03-16T15:42:47.114Z,11.70
2023-03-16T15:45:16.872Z,11.70
2023-03-16T15:47:43.812Z,11.70
2023-03-16T15:50:11.896Z,11.70
2023-03-16T15:52:41.670Z,11.70
2023-03-16T15:55:16.166Z,11.50
2023-03-16T15:57:43.146Z,11.50
2023-03-16T16:00:28.419Z,11.40
2023-03-16T16:02:57.539Z,11.30
2023-03-16T16:05:25.347Z,11.20
2023-03-16T16:07:52.288Z,11.30
2023-03-16T16:10:19.619Z,11.20
2023-03-16T16:12:49.405Z,11.10
2023-03-16T16:15:20.984Z,11.10
2023-03-16T16:18:07.422Z,11.00
2023-03-16T16:20:34.801Z,11.00
2023-03-16T16:23:01.548Z,11.00
2023-03-16T16:25:34.567Z,11.00
2023-03-16T16:28:01.300Z,11.00
2023-03-16T16:30:31.529Z,11.00
2023-03-16T16:32:58.988Z,11.00
2023-03-16T16:35:28.589Z,11.00
2023-03-16T16:37:55.566Z,10.90
2023-03-16T16:40:24.476Z,10.90
2023-03-16T16:42:51.874Z,10.80
2023-03-16T16:45:20.136Z,10.80
2023-03-16T16:47:50.229Z,10.70
2023-03-16T16:50:20.050Z,10.60
2023-03-16T16:52:47.127Z,10.50
2023-03-16T16:55:13.940Z,10.40
2023-03-16T16:57:41.228Z,10.40
2023-03-16T17:00:17.206Z,10.30
2023-03-16T17:02:46.076Z,10.20
2023-03-16T17:05:20.492Z,10.00
2023-03-16T17:07:47.948Z,9.90
2023-03-16T17:10:20.628Z,9.80
2023-03-16T17:12:48.306Z,9.70
2023-03-16T17:15:28.783Z,9.60
2023-03-16T17:18:00.924Z,9.50
2023-03-16T17:20:29.419Z,9.30
2023-03-16T17:22:58.247Z,9.20
2023-03-16T17:25:25.130Z,9.10
2023-03-16T17:27:54.471Z,9.00
2023-03-16T17:30:24.488Z,8.90
2023-03-16T17:32:52.034Z,8.80
2023-03-16T17:35:19.786Z,8.70
2023-03-16T17:37:48.174Z,8.60
2023-03-16T17:40:20.553Z,8.50
2023-03-16T17:42:48.587Z,8.40
2023-03-16T17:45:18.530Z,8.20
2023-03-16T17:47:45.368Z,8.20
2023-03-16T17:50:17.281Z,8.10
2023-03-16T17:52:44.283Z,8.00
2023-03-16T17:55:12.695Z,7.80
2023-03-16T17:57:39.449Z,7.80
2023-03-16T18:00:23.468Z,7.90
2023-03-16T18:02:52.218Z,7.80
2023-03-16T18:05:20.576Z,7.70
2023-03-16T18:07:47.777Z,7.70
2023-03-16T18:10:17.772Z,7.70
2023-03-16T18:12:46.925Z,7.60
2023-03-16T18:15:17.826Z,7.50
2023-03-16T18:17:45.138Z,7.50
2023-03-16T18:20:21.793Z,7.40
2023-03-16T18:22:49.032Z,7.30
2023-03-16T18:25:28.800Z,7.30
2023-03-16T18:27:58.079Z,7.30
2023-03-16T18:30:25.484Z,7.30
2023-03-16T18:32:52.865Z,7.20
2023-03-16T18:35:20.172Z,7.20
2023-03-16T18:37:47.224Z,7.30
2023-03-16T18:40:16.761Z,7.30
2023-03-16T18:42:45.266Z,7.30
2023-03-16T18:45:13.836Z,7.30
2023-03-16T18:47:42.849Z,7.20
2023-03-16T18:50:15.754Z,7.10
2023-03-16T18:52:42.532Z,7.10
2023-03-16T18:55:15.420Z,7.10
2023-03-16T18:57:42.367Z,7.10
2023-03-16T19:00:16.087Z,7.00
2023-03-16T19:02:44.274Z,6.90
2023-03-16T19:05:15.251Z,6.90
2023-03-16T19:07:44.122Z,6.90
2023-03-16T19:10:21.515Z,7.00
2023-03-16T19:12:48.534Z,6.90
2023-03-16T19:15:21.649Z,7.00
2023-03-16T19:17:48.784Z,6.90
2023-03-16T19:20:17.328Z,6.90
2023-03-16T19:22:45.323Z,6.90
2023-03-16T19:25:16.314Z,6.80
2023-03-16T19:27:43.377Z,6.70
2023-03-16T19:30:22.244Z,6.80
2023-03-16T19:32:52.541Z,6.80
2023-03-16T19:35:20.540Z,6.80
2023-03-16T19:37:47.749Z,6.80
2023-03-16T19:40:17.663Z,6.80
2023-03-16T19:42:48.189Z,6.90
2023-03-16T19:45:23.233Z,6.90
2023-03-16T19:47:52.277Z,6.80
2023-03-16T19:50:20.472Z,6.70
2023-03-16T19:52:48.163Z,6.80
2023-03-16T19:55:17.608Z,6.70
2023-03-16T19:57:48.136Z,6.60
2023-03-16T20:00:21.297Z,6.70
2023-03-16T20:02:49.548Z,6.70
2023-03-16T20:05:19.017Z,6.60
2023-03-16T20:07:45.883Z,6.60
2023-03-16T20:10:17.500Z,6.70
2023-03-16T20:12:44.510Z,6.60
2023-03-16T20:15:15.424Z,6.60
2023-03-16T20:17:42.618Z,6.60
2023-03-16T20:20:18.752Z,6.60
2023-03-16T20:22:45.488Z,6.60
2023-03-16T20:25:12.303Z,6.60
2023-03-16T20:27:39.884Z,6.50
2023-03-16T20:30:15.021Z,6.60
2023-03-16T20:32:41.863Z,6.50
2023-03-16T20:35:17.771Z,6.50
2023-03-16T20:37:45.210Z,6.50
2023-03-16T20:40:15.388Z,6.40
2023-03-16T20:42:43.068Z,6.40
2023-03-16T20:45:22.348Z,6.40
2023-03-16T20:47:50.283Z,6.40
2023-03-16T20:50:25.715Z,6.40
2023-03-16T20:52:53.091Z,6.40
2023-03-16T20:55:22.488Z,6.50
2023-03-16T20:57:50.227Z,6.40
2023-03-16T21:00:35.958Z,6.40
2023-03-16T21:03:04.274Z,6.30
2023-03-16T21:05:32.368Z,6.30
2023-03-16T21:07:59.109Z,6.30
2023-03-16T21:10:25.942Z,6.30
2023-03-16T21:12:54.904Z,6.20
2023-03-16T21:15:25.047Z,6.10
2023-03-16T21:17:59.373Z,6.20
2023-03-16T21:20:29.423Z,6.10
2023-03-16T21:22:57.902Z,6.00
2023-03-16T21:25:28.429Z,5.90
2023-03-16T21:27:57.437Z,5.70
2023-03-16T21:30:29.103Z,5.70
2023-03-16T21:32:56.538Z,5.60
2023-03-16T21:35:28.332Z,5.50
2023-03-16T21:37:57.363Z,5.40
2023-03-16T21:40:31.670Z,5.40
2023-03-16T21:42:58.726Z,5.30
2023-03-16T21:45:25.910Z,5.30
2023-03-16T21:47:53.082Z,5.30
2023-03-16T21:50:22.652Z,5.20
2023-03-16T21:52:53.126Z,5.10
2023-03-16T21:55:25.789Z,5.10
2023-03-16T21:57:57.256Z,5.20
2023-03-16T22:00:26.914Z,5.30
2023-03-16T22:02:56.121Z,5.30
2023-03-16T22:05:35.370Z,5.30
2023-03-16T22:08:07.746Z,5.40
2023-03-16T22:10:36.070Z,5.40
2023-03-16T22:13:02.813Z,5.30
2023-03-16T22:15:32.033Z,5.40
2023-03-16T22:18:03.064Z,5.30
2023-03-16T22:20:29.861Z,5.40
2023-03-16T22:22:56.981Z,5.50
2023-03-16T22:25:26.192Z,5.50
2023-03-16T22:27:54.597Z,5.50
2023-03-16T22:30:26.283Z,5.60
2023-03-16T22:32:57.654Z,5.50
2023-03-16T22:35:35.913Z,5.50
2023-03-16T22:38:05.309Z,5.40
2023-03-16T22:40:36.894Z,5.50
2023-03-16T22:43:13.838Z,5.40
2023-03-16T22:45:43.328Z,5.50
2023-03-16T22:48:18.483Z,5.40
2023-03-16T22:50:46.415Z,5.50
2023-03-16T22:53:19.009Z,5.50
2023-03-16T22:55:46.235Z,5.40
2023-03-16T22:58:20.360Z,5.50
2023-03-16T23:00:47.367Z,5.50
2023-03-16T23:03:17.559Z,5.50
2023-03-16T23:05:44.733Z,5.50
2023-03-16T23:08:14.217Z,5.60
2023-03-16T23:10:41.016Z,5.60
2023-03-16T23:13:12.534Z,5.70
2023-03-16T23:15:40.909Z,5.70
2023-03-16T23:18:14.194Z,5.70
2023-03-16T23:20:40.973Z,5.60
2023-03-16T23:23:07.714Z,5.80
2023-03-16T23:25:35.187Z,5.70
2023-03-16T23:28:03.366Z,5.70
2023-03-16T23:30:31.105Z,5.60
2023-03-16T23:32:59.487Z,5.60
2023-03-16T23:35:29.282Z,5.60
2023-03-16T23:37:56.450Z,5.60
2023-03-16T23:40:27.809Z,5.50
2023-03-16T23:42:56.690Z,5.50
2023-03-16T23:45:28.262Z,5.40
2023-03-16T23:47:59.017Z,5.30
2023-03-16T23:50:29.875Z,5.30
2023-03-16T23:52:56.964Z,5.30
2023-03-16T23:55:24.546Z,5.30
2023-03-16T23:57:51.381Z,5.20
